Pagrindinis puslapis
METAR-TAF:

METAR-TAF

Oro uostai :

Čaitenas, Čilė

platuma: 42-55-58S, ilguma: 072-41-58W, Aukštis: 4 m

Dabartinis oras

Ataskaita buvo paskelbta 10 minutes, ne 10:00 UTC
Vėjas 4 kt iš Šiaurės/Šiaurės Rytų
Temperatūra 12°C
Drėgmė 94%
Slėgis 1017 hPa
Matomumas 10 km arba daugiau
Išsisklaidę debesys ne aukštis 1500 ft
Apsiniaukę ne aukštis 3600 ft

METAR: SCTN 101000Z AUTO 03004KT 9999 SCT015 OVC036 12/11 Q1017

Laikas: 07:10 (10:10 UTC)

Prognozė

Ataskaita buvo paskelbta 17 valandos ir 37 minutes, ne 16:33 UTC
Prognozė galioja nuo 09 metu 18 UTC su 10 metu 06 UTC
Vėjas 10 kt iš Šiaurės/Šiaurės Vakarų
Matomumas 10 km arba daugiau
Išsisklaidę debesys ne aukštis 3000 ft
Laikinai
nuo 09 metu 19 UTC su 09 metu 23 UTC
Matomumas: 7000 m
Su prošvaistėmis ne aukštis 3500 ft
lietus

TAF: SCTN 091633Z 0918/1006 34010KT 9999 SCT030 TX17/0919Z TN11/1006Z TEMPO 0919/0923 7000 -SHRA BKN035

Orai ataskaitas ir orų prognozės (METAR, TAF).

turimą stotys yra geltonos ir raudonos taškus žemėlapyje.

Perkelti pele per norėdami pamatyti stoties vardą.

Tada spustelėkite, norėdami matyti oro stebėjimo ir prognozės.

Norėdami pakeisti žemėlapį: spustelėkite ant žalios mygtukų su juodo kryžiaus žemyn,; žalią mygtuką su brūkšneliu, jei norite nutolinti; arba žalių rodyklių gretimoms žemėlapius.


METAR-TAF: